Time;durP1;ratioP1;P1;durP2;ratioP2;P2;SDS_P1;SDS_P2;PMS_P1;PMS_P2;Temp;Humidity;BMP_temperature;BMP_pressure;BME280_temperature;BME280_humidity;BME280_pressure;Samples;Min_cycle;Max_cycle;Signal;HPM_P1;HPM_P2
2024/02/21 00:02:24;;;;;;;7.00;4.35;;;;;;;;;;5053733;28;20063;-57
2024/02/21 00:04:50;;;;;;;10.68;4.80;;;;;;;;;;5053995;28;20408;-57
2024/02/21 00:07:16;;;;;;;7.72;4.90;;;;;;;;;;5053420;28;20154;-56
2024/02/21 00:09:43;;;;;;;5.40;3.92;;;;;;;;;;5053416;28;20029;-56
2024/02/21 00:12:09;;;;;;;8.05;4.72;;;;;;;;;;5053420;28;20040;-56
2024/02/21 00:14:35;;;;;;;6.25;4.13;;;;;;;;;;5053490;28;20025;-57
2024/02/21 00:17:01;;;;;;;6.78;3.47;;;;;;;;;;5053957;28;20163;-57
2024/02/21 00:19:26;;;;;;;5.38;4.20;;;;;;;;;;5053845;28;20040;-57
2024/02/21 00:21:52;;;;;;;6.35;4.03;;;;;;;;;;5053806;28;20106;-56
2024/02/21 00:24:18;;;;;;;7.60;3.72;;;;;;;;;;5053077;28;20110;-57
2024/02/21 00:26:44;;;;;;;9.02;3.33;;;;;;;;;;5053609;28;20067;-57
2024/02/21 00:29:10;;;;;;;8.65;4.13;;;;;;;;;;5053856;28;20509;-55
2024/02/21 00:31:36;;;;;;;6.22;3.88;;;;;;;;;;5053284;28;20516;-57
2024/02/21 00:34:02;;;;;;;8.38;3.67;;;;;;;;;;5052840;28;20021;-57
2024/02/21 00:36:28;;;;;;;9.77;3.42;;;;;;;;;;5053192;28;20032;-57
2024/02/21 00:38:54;;;;;;;5.72;2.75;;;;;;;;;;5053979;28;20061;-57
2024/02/21 00:41:20;;;;;;;5.85;2.42;;;;;;;;;;5052882;28;20037;-57
2024/02/21 00:43:48;;;;;;;6.30;3.78;;;;;;;;;;5053144;28;20025;-57
2024/02/21 00:46:14;;;;;;;6.97;3.72;;;;;;;;;;5053615;28;20033;-56
2024/02/21 00:48:40;;;;;;;6.07;3.50;;;;;;;;;;5053020;28;20070;-55
2024/02/21 00:51:06;;;;;;;6.47;3.40;;;;;;;;;;5053576;28;20032;-55
2024/02/21 00:53:32;;;;;;;6.15;3.35;;;;;;;;;;5053045;28;20021;-57
2024/02/21 00:55:57;;;;;;;7.82;3.70;;;;;;;;;;5053176;28;20055;-57
2024/02/21 00:58:23;;;;;;;6.85;3.35;;;;;;;;;;5053809;28;20383;-54
2024/02/21 01:00:49;;;;;;;6.55;4.18;;;;;;;;;;5054365;28;20549;-57
2024/02/21 01:03:15;;;;;;;8.48;4.20;;;;;;;;;;5057153;28;20029;-57
2024/02/21 01:05:41;;;;;;;10.10;3.53;;;;;;;;;;5056579;28;20025;-57
2024/02/21 01:08:08;;;;;;;5.75;3.85;;;;;;;;;;5057321;28;20041;-57
2024/02/21 01:10:34;;;;;;;4.28;2.90;;;;;;;;;;5056462;28;20093;-58
2024/02/21 01:13:00;;;;;;;5.03;2.95;;;;;;;;;;5056412;28;20091;-56
2024/02/21 01:15:26;;;;;;;4.97;3.47;;;;;;;;;;5056380;28;20382;-57
2024/02/21 01:17:54;;;;;;;5.07;3.22;;;;;;;;;;5056855;28;20025;-56
2024/02/21 01:20:21;;;;;;;7.07;2.75;;;;;;;;;;5056718;28;20427;-54
2024/02/21 01:22:47;;;;;;;4.68;3.22;;;;;;;;;;5056168;28;20061;-57
2024/02/21 01:25:13;;;;;;;6.05;3.60;;;;;;;;;;5056143;28;20030;-56
2024/02/21 01:27:38;;;;;;;5.80;3.40;;;;;;;;;;5056550;28;20074;-57
2024/02/21 01:30:05;;;;;;;6.03;4.03;;;;;;;;;;5056078;28;20029;-57
2024/02/21 01:32:31;;;;;;;7.10;3.95;;;;;;;;;;5055968;28;20037;-57
2024/02/21 01:34:57;;;;;;;7.78;3.45;;;;;;;;;;5057073;28;20367;-56
2024/02/21 01:37:23;;;;;;;6.10;3.20;;;;;;;;;;5055637;28;20021;-58
2024/02/21 01:39:50;;;;;;;4.78;2.90;;;;;;;;;;5056136;28;20040;-57
2024/02/21 01:42:16;;;;;;;6.07;3.65;;;;;;;;;;5055983;28;20521;-57
2024/02/21 01:44:42;;;;;;;6.88;3.28;;;;;;;;;;5055736;28;20029;-56
2024/02/21 01:47:08;;;;;;;5.68;3.38;;;;;;;;;;5056200;28;20017;-57
2024/02/21 01:49:34;;;;;;;4.75;2.92;;;;;;;;;;5056537;28;20025;-57
2024/02/21 01:52:00;;;;;;;7.25;2.55;;;;;;;;;;5056148;28;20036;-57
2024/02/21 01:54:30;;;;;;;5.30;3.38;;;;;;;;;;5056344;28;20095;-57
2024/02/21 01:56:56;;;;;;;7.93;4.03;;;;;;;;;;5055969;28;20044;-56
2024/02/21 01:59:22;;;;;;;4.95;2.80;;;;;;;;;;5055640;28;20113;-54
2024/02/21 02:01:48;;;;;;;7.97;2.83;;;;;;;;;;5055421;28;20435;-57
2024/02/21 02:04:14;;;;;;;6.07;2.75;;;;;;;;;;5056023;28;20025;-57
2024/02/21 02:06:41;;;;;;;6.03;3.20;;;;;;;;;;5055948;28;20028;-56
2024/02/21 02:09:07;;;;;;;7.55;3.15;;;;;;;;;;5055900;28;20037;-57
2024/02/21 02:11:33;;;;;;;6.00;3.47;;;;;;;;;;5054995;28;20051;-53
2024/02/21 02:13:59;;;;;;;3.80;2.40;;;;;;;;;;5055532;28;20048;-55
2024/02/21 02:16:28;;;;;;;8.88;3.67;;;;;;;;;;5054943;28;20467;-51
2024/02/21 02:18:54;;;;;;;4.32;2.42;;;;;;;;;;5055456;28;20029;-56
2024/02/21 02:21:39;;;;;;;6.07;2.63;;;;;;;;;;5055817;28;20032;-54
2024/02/21 02:24:05;;;;;;;5.45;3.50;;;;;;;;;;5055245;28;20079;-55
2024/02/21 02:26:31;;;;;;;9.70;3.45;;;;;;;;;;5055507;28;20108;-56
2024/02/21 02:28:57;;;;;;;8.38;3.65;;;;;;;;;;5055292;28;20514;-55
2024/02/21 02:31:23;;;;;;;5.97;2.90;;;;;;;;;;5055421;28;20033;-50
2024/02/21 02:33:49;;;;;;;6.80;3.40;;;;;;;;;;5054580;28;20029;-56
2024/02/21 02:36:15;;;;;;;6.38;3.08;;;;;;;;;;5055320;28;20025;-53
2024/02/21 02:38:41;;;;;;;5.70;3.22;;;;;;;;;;5054733;28;20425;-54
2024/02/21 02:41:07;;;;;;;7.65;3.25;;;;;;;;;;5055057;28;20028;-55
2024/02/21 02:43:33;;;;;;;4.25;2.60;;;;;;;;;;5055008;28;20095;-54
2024/02/21 02:45:59;;;;;;;3.70;2.75;;;;;;;;;;5054565;28;20028;-55
2024/02/21 02:48:25;;;;;;;6.00;2.50;;;;;;;;;;5054920;28;20032;-54
2024/02/21 02:50:51;;;;;;;8.68;3.20;;;;;;;;;;5054752;28;20382;-55
2024/02/21 02:53:17;;;;;;;5.85;2.85;;;;;;;;;;5054532;28;20096;-52
2024/02/21 02:55:43;;;;;;;4.63;3.05;;;;;;;;;;5054139;28;20107;-52
2024/02/21 02:58:09;;;;;;;4.30;2.88;;;;;;;;;;5054964;28;20025;-58
2024/02/21 03:00:36;;;;;;;4.90;2.63;;;;;;;;;;5054467;28;20040;-58
2024/02/21 03:03:05;;;;;;;7.03;2.88;;;;;;;;;;5055301;28;20037;-58
2024/02/21 03:05:31;;;;;;;10.68;3.25;;;;;;;;;;5054749;28;20036;-57
2024/02/21 03:07:57;;;;;;;6.03;2.60;;;;;;;;;;5054317;28;20048;-56
2024/02/21 03:10:23;;;;;;;8.25;2.67;;;;;;;;;;5054214;28;20029;-56
2024/02/21 03:12:50;;;;;;;6.00;2.47;;;;;;;;;;5054885;28;20032;-57
2024/02/21 03:15:16;;;;;;;4.32;2.20;;;;;;;;;;5054633;28;20025;-56
2024/02/21 03:17:45;;;;;;;6.38;2.90;;;;;;;;;;5053988;28;20075;-56
2024/02/21 03:20:12;;;;;;;7.63;2.78;;;;;;;;;;5053836;28;20028;-56
2024/02/21 03:22:38;;;;;;;4.88;2.78;;;;;;;;;;5054282;28;20120;-57
2024/02/21 03:25:04;;;;;;;4.60;2.95;;;;;;;;;;5053725;28;20021;-57
2024/02/21 03:27:30;;;;;;;3.80;2.35;;;;;;;;;;5054182;28;20029;-55
2024/02/21 03:29:56;;;;;;;7.80;2.53;;;;;;;;;;5054271;28;20039;-57
2024/02/21 03:32:22;;;;;;;3.72;2.17;;;;;;;;;;5054093;28;20048;-56
2024/02/21 03:34:48;;;;;;;5.18;2.40;;;;;;;;;;5053824;28;20029;-54
2024/02/21 03:37:13;;;;;;;4.80;2.00;;;;;;;;;;5054562;28;20340;-56
2024/02/21 03:39:40;;;;;;;6.15;2.38;;;;;;;;;;5054532;28;20414;-57
2024/02/21 03:42:06;;;;;;;3.60;1.92;;;;;;;;;;5053717;28;20032;-57
2024/02/21 03:44:32;;;;;;;6.50;2.40;;;;;;;;;;5054495;28;20036;-56
2024/02/21 03:46:59;;;;;;;4.60;2.38;;;;;;;;;;5053920;28;20044;-56
2024/02/21 03:49:25;;;;;;;9.73;2.58;;;;;;;;;;5053692;28;20024;-57
2024/02/21 03:51:51;;;;;;;4.90;2.13;;;;;;;;;;5053567;28;20032;-57
2024/02/21 03:54:17;;;;;;;5.80;2.58;;;;;;;;;;5053982;28;20021;-57
2024/02/21 03:56:43;;;;;;;5.93;2.55;;;;;;;;;;5053689;28;20053;-56
2024/02/21 03:59:09;;;;;;;3.08;1.92;;;;;;;;;;5054083;28;20136;-57
2024/02/21 04:01:35;;;;;;;8.88;3.20;;;;;;;;;;5053404;28;20028;-56
2024/02/21 04:04:02;;;;;;;9.13;3.10;;;;;;;;;;5054019;28;20040;-57
2024/02/21 04:06:28;;;;;;;6.70;2.63;;;;;;;;;;5053554;28;20071;-57
2024/02/21 04:08:54;;;;;;;4.93;2.35;;;;;;;;;;5054060;28;20028;-56
2024/02/21 04:11:20;;;;;;;4.72;2.33;;;;;;;;;;5053501;28;20044;-57
2024/02/21 04:13:48;;;;;;;4.68;2.08;;;;;;;;;;5053396;28;20021;-57
2024/02/21 04:16:15;;;;;;;5.80;2.40;;;;;;;;;;5053923;28;20057;-57
2024/02/21 04:18:41;;;;;;;5.28;2.33;;;;;;;;;;5053916;28;20029;-55
2024/02/21 04:21:07;;;;;;;5.32;1.95;;;;;;;;;;5053190;28;20110;-54
2024/02/21 04:23:33;;;;;;;6.00;2.90;;;;;;;;;;5053133;28;20112;-55
2024/02/21 04:25:59;;;;;;;7.15;2.97;;;;;;;;;;5053507;28;20029;-56
2024/02/21 04:28:25;;;;;;;9.98;2.38;;;;;;;;;;5053626;28;20033;-55
2024/02/21 04:30:51;;;;;;;4.53;2.67;;;;;;;;;;5053816;28;20032;-57
2024/02/21 04:33:17;;;;;;;5.68;2.05;;;;;;;;;;5052941;28;20462;-56
2024/02/21 04:35:43;;;;;;;7.65;1.92;;;;;;;;;;5054664;28;20066;-54
2024/02/21 04:38:09;;;;;;;5.88;2.03;;;;;;;;;;5057842;28;20061;-56
2024/02/21 04:40:34;;;;;;;7.43;2.55;;;;;;;;;;5057153;28;20025;-56
2024/02/21 04:43:00;;;;;;;3.72;2.20;;;;;;;;;;5057018;28;20055;-57
2024/02/21 04:45:26;;;;;;;3.15;2.00;;;;;;;;;;5057480;28;20367;-54
2024/02/21 04:47:52;;;;;;;4.20;2.47;;;;;;;;;;5057664;28;20029;-57
2024/02/21 04:50:18;;;;;;;4.65;2.70;;;;;;;;;;5056594;28;20121;-56
2024/02/21 04:52:44;;;;;;;4.68;2.10;;;;;;;;;;5056817;28;20451;-55
2024/02/21 04:55:10;;;;;;;4.95;2.35;;;;;;;;;;5056757;28;20032;-57
2024/02/21 04:57:36;;;;;;;3.70;2.22;;;;;;;;;;5057826;28;20048;-56
2024/02/21 05:00:06;;;;;;;5.18;3.08;;;;;;;;;;5056840;28;20025;-57
2024/02/21 05:02:32;;;;;;;7.60;2.33;;;;;;;;;;5056679;28;20033;-55
2024/02/21 05:04:58;;;;;;;5.43;2.90;;;;;;;;;;5057193;28;20083;-56
2024/02/21 05:07:23;;;;;;;5.13;2.50;;;;;;;;;;5056830;28;20037;-57
2024/02/21 05:09:50;;;;;;;6.13;2.53;;;;;;;;;;5057136;28;20025;-57
2024/02/21 05:12:15;;;;;;;8.90;1.95;;;;;;;;;;5057287;28;20032;-56
2024/02/21 05:14:41;;;;;;;7.55;2.63;;;;;;;;;;5056475;28;20367;-57
2024/02/21 05:17:07;;;;;;;3.85;2.13;;;;;;;;;;5056910;28;20025;-57
2024/02/21 05:19:33;;;;;;;7.03;1.85;;;;;;;;;;5056869;28;20021;-57
2024/02/21 05:21:59;;;;;;;3.30;1.88;;;;;;;;;;5056565;28;20028;-56
2024/02/21 05:24:25;;;;;;;5.43;2.00;;;;;;;;;;5056633;28;20017;-56
2024/02/21 05:26:51;;;;;;;5.20;2.50;;;;;;;;;;5056689;28;20028;-56
2024/02/21 05:29:17;;;;;;;5.30;2.55;;;;;;;;;;5056896;28;20047;-57
2024/02/21 05:31:56;;;;;;;5.90;2.30;;;;;;;;;;5055805;28;20021;-56
2024/02/21 05:34:22;;;;;;;4.13;1.85;;;;;;;;;;5056687;28;20066;-56
2024/02/21 05:36:51;;;;;;;3.95;2.00;;;;;;;;;;5055987;28;20025;-56
2024/02/21 05:39:18;;;;;;;7.07;2.17;;;;;;;;;;5056302;28;20032;-56
2024/02/21 05:41:44;;;;;;;4.55;2.60;;;;;;;;;;5055453;28;20658;-58
2024/02/21 05:44:10;;;;;;;6.22;2.28;;;;;;;;;;5055909;28;20060;-58
2024/02/21 05:46:36;;;;;;;9.00;2.55;;;;;;;;;;5055764;28;20028;-58
2024/02/21 05:49:01;;;;;;;4.65;2.10;;;;;;;;;;5056221;28;20041;-57
2024/02/21 05:51:27;;;;;;;3.50;2.42;;;;;;;;;;5055594;28;20029;-57
2024/02/21 05:53:53;;;;;;;5.63;2.30;;;;;;;;;;5055802;28;20119;-56
2024/02/21 05:56:19;;;;;;;9.88;2.65;;;;;;;;;;5055506;28;20053;-56
2024/02/21 05:58:45;;;;;;;4.32;2.55;;;;;;;;;;5055929;28;20473;-56
2024/02/21 06:01:12;;;;;;;4.07;2.40;;;;;;;;;;5055170;28;20029;-53
2024/02/21 06:03:38;;;;;;;8.40;3.05;;;;;;;;;;5055525;28;20478;-58
2024/02/21 06:06:04;;;;;;;6.10;2.25;;;;;;;;;;5055773;28;20110;-58
2024/02/21 06:08:30;;;;;;;4.57;2.03;;;;;;;;;;5055107;28;20497;-57
2024/02/21 06:10:56;;;;;;;4.07;1.88;;;;;;;;;;5056104;28;20029;-58
2024/02/21 06:13:22;;;;;;;2.35;1.52;;;;;;;;;;5056039;28;20039;-58
2024/02/21 06:15:50;;;;;;;3.55;2.10;;;;;;;;;;5055226;28;20021;-55
2024/02/21 06:18:16;;;;;;;5.00;2.75;;;;;;;;;;5056083;28;20056;-56
2024/02/21 06:20:43;;;;;;;4.35;2.13;;;;;;;;;;5055157;28;20025;-56
2024/02/21 06:23:09;;;;;;;7.55;2.10;;;;;;;;;;5054830;28;20517;-57
2024/02/21 06:25:34;;;;;;;5.10;2.63;;;;;;;;;;5055616;28;20033;-55
2024/02/21 06:28:00;;;;;;;5.25;2.50;;;;;;;;;;5055591;28;20029;-57
2024/02/21 06:30:26;;;;;;;4.43;2.35;;;;;;;;;;5055310;28;20032;-57
2024/02/21 06:32:55;;;;;;;5.25;2.13;;;;;;;;;;5054954;28;20045;-58
2024/02/21 06:35:21;;;;;;;7.25;2.42;;;;;;;;;;5055147;28;20017;-57
2024/02/21 06:37:51;;;;;;;9.18;2.53;;;;;;;;;;5054523;28;20054;-57
2024/02/21 06:40:17;;;;;;;3.03;1.92;;;;;;;;;;5054752;28;20037;-57
2024/02/21 06:42:43;;;;;;;5.25;2.13;;;;;;;;;;5054414;28;20086;-57
2024/02/21 06:45:09;;;;;;;5.20;2.08;;;;;;;;;;5054353;28;20025;-55
2024/02/21 06:47:35;;;;;;;5.65;2.00;;;;;;;;;;5054680;28;20031;-58
2024/02/21 06:50:01;;;;;;;3.15;1.83;;;;;;;;;;5055178;28;20033;-56
2024/02/21 06:52:27;;;;;;;4.80;2.38;;;;;;;;;;5054519;28;20082;-58
2024/02/21 06:54:53;;;;;;;3.85;2.05;;;;;;;;;;5054646;28;20343;-54
2024/02/21 06:57:19;;;;;;;5.22;2.38;;;;;;;;;;5054265;28;20394;-58
2024/02/21 06:59:44;;;;;;;5.07;2.28;;;;;;;;;;5054648;28;20032;-57
2024/02/21 07:02:12;;;;;;;4.80;2.17;;;;;;;;;;5054350;28;20039;-57
2024/02/21 07:04:38;;;;;;;6.13;2.33;;;;;;;;;;5054619;28;20024;-57
2024/02/21 07:07:04;;;;;;;6.20;2.97;;;;;;;;;;5054858;28;20363;-57
2024/02/21 07:09:31;;;;;;;6.38;2.75;;;;;;;;;;5055048;28;20158;-57
2024/02/21 07:11:57;;;;;;;9.93;3.05;;;;;;;;;;5054646;28;20086;-57
2024/02/21 07:14:23;;;;;;;5.68;2.05;;;;;;;;;;5054441;28;20116;-57
2024/02/21 07:16:49;;;;;;;3.15;1.58;;;;;;;;;;5054133;28;20060;-56
2024/02/21 07:19:15;;;;;;;7.50;2.20;;;;;;;;;;5054102;28;20024;-58
2024/02/21 07:21:42;;;;;;;5.32;2.08;;;;;;;;;;5054456;28;20025;-56
2024/02/21 07:24:08;;;;;;;4.43;2.13;;;;;;;;;;5053514;28;20502;-56
2024/02/21 07:26:34;;;;;;;9.00;2.53;;;;;;;;;;5054514;28;20352;-57
2024/02/21 07:29:00;;;;;;;6.55;2.05;;;;;;;;;;5054737;28;20032;-56
2024/02/21 07:31:26;;;;;;;8.75;2.20;;;;;;;;;;5053892;28;20036;-56
2024/02/21 07:33:52;;;;;;;5.70;2.00;;;;;;;;;;5053719;28;20032;-57
2024/02/21 07:36:30;;;;;;;6.07;2.30;;;;;;;;;;5053839;28;20029;-55
2024/02/21 07:38:56;;;;;;;5.55;2.33;;;;;;;;;;5054630;28;20344;-57
2024/02/21 07:41:22;;;;;;;11.07;1.63;;;;;;;;;;5053730;28;20033;-57
2024/02/21 07:43:51;;;;;;;4.90;2.65;;;;;;;;;;5054552;28;20496;-57
2024/02/21 07:46:18;;;;;;;7.10;2.55;;;;;;;;;;5053548;28;20390;-57
2024/02/21 07:48:43;;;;;;;7.20;2.35;;;;;;;;;;5053860;28;20112;-56
2024/02/21 07:51:09;;;;;;;10.57;1.83;;;;;;;;;;5054473;28;20122;-57
2024/02/21 07:53:35;;;;;;;7.88;2.53;;;;;;;;;;5053666;28;20021;-57
2024/02/21 07:56:01;;;;;;;5.82;2.53;;;;;;;;;;5053301;28;20405;-55
2024/02/21 07:58:27;;;;;;;3.30;1.67;;;;;;;;;;5053825;28;20479;-56
2024/02/21 08:00:53;;;;;;;4.82;2.08;;;;;;;;;;5053562;28;20103;-57
2024/02/21 08:03:20;;;;;;;3.35;2.30;;;;;;;;;;5053793;28;20111;-57
2024/02/21 08:05:46;;;;;;;3.88;2.38;;;;;;;;;;5053529;28;20025;-57
2024/02/21 08:08:18;;;;;;;5.45;1.90;;;;;;;;;;5053548;28;20027;-57
2024/02/21 08:10:44;;;;;;;5.22;2.30;;;;;;;;;;5056716;28;20029;-57
2024/02/21 08:13:10;;;;;;;6.07;2.45;;;;;;;;;;5057485;28;20032;-58
2024/02/21 08:15:38;;;;;;;6.35;2.35;;;;;;;;;;5057269;28;20032;-55
2024/02/21 08:18:05;;;;;;;4.15;2.13;;;;;;;;;;5057508;28;20025;-56
2024/02/21 08:20:31;;;;;;;6.10;2.42;;;;;;;;;;5057862;28;20465;-57
2024/02/21 08:22:56;;;;;;;5.10;1.85;;;;;;;;;;5058139;28;20059;-55
2024/02/21 08:25:22;;;;;;;4.93;1.92;;;;;;;;;;5057198;28;20116;-57
2024/02/21 08:27:48;;;;;;;3.50;2.20;;;;;;;;;;5057736;28;20472;-54
2024/02/21 08:30:14;;;;;;;5.32;1.95;;;;;;;;;;5057624;28;20061;-56
2024/02/21 08:32:40;;;;;;;8.50;2.58;;;;;;;;;;5057464;28;20028;-57
2024/02/21 08:35:06;;;;;;;6.32;2.50;;;;;;;;;;5057185;28;20028;-55
2024/02/21 08:37:32;;;;;;;3.33;1.75;;;;;;;;;;5057100;28;20036;-57
2024/02/21 08:39:58;;;;;;;8.75;2.55;;;;;;;;;;5057642;28;20504;-56
2024/02/21 08:42:24;;;;;;;4.82;1.55;;;;;;;;;;5057069;28;20029;-54
2024/02/21 08:44:50;;;;;;;4.00;2.05;;;;;;;;;;5057089;28;20024;-57
2024/02/21 08:47:16;;;;;;;4.25;2.03;;;;;;;;;;5057044;28;20366;-54
2024/02/21 08:49:42;;;;;;;6.65;1.98;;;;;;;;;;5057551;28;20435;-56
2024/02/21 08:52:08;;;;;;;4.38;2.00;;;;;;;;;;5057711;28;20040;-56
2024/02/21 08:54:34;;;;;;;5.90;2.40;;;;;;;;;;5056876;28;20386;-56
2024/02/21 08:57:00;;;;;;;5.22;2.55;;;;;;;;;;5057147;28;20474;-58
2024/02/21 08:59:26;;;;;;;9.57;1.95;;;;;;;;;;5056756;28;20052;-55
2024/02/21 09:01:53;;;;;;;3.50;2.20;;;;;;;;;;5057004;28;20045;-57
2024/02/21 09:04:19;;;;;;;4.55;2.05;;;;;;;;;;5056649;28;20112;-54
2024/02/21 09:06:46;;;;;;;10.57;2.97;;;;;;;;;;5056650;28;20029;-57
2024/02/21 09:09:12;;;;;;;4.88;1.70;;;;;;;;;;5056871;28;20037;-58
2024/02/21 09:11:39;;;;;;;5.13;2.58;;;;;;;;;;5056883;28;20024;-58
2024/02/21 09:14:04;;;;;;;4.50;1.75;;;;;;;;;;5056592;28;20032;-57
2024/02/21 09:16:33;;;;;;;5.88;2.58;;;;;;;;;;5056464;28;20021;-57
2024/02/21 09:19:00;;;;;;;3.63;1.70;;;;;;;;;;5056930;28;20130;-57
2024/02/21 09:21:27;;;;;;;8.73;1.88;;;;;;;;;;5055548;28;20036;-57
2024/02/21 09:23:53;;;;;;;6.05;1.90;;;;;;;;;;5056190;28;20470;-57
2024/02/21 09:26:19;;;;;;;1.90;1.00;;;;;;;;;;5056333;28;20074;-58
2024/02/21 09:28:45;;;;;;;7.85;2.05;;;;;;;;;;5056789;28;20029;-58
2024/02/21 09:31:11;;;;;;;7.53;2.00;;;;;;;;;;5056238;28;20035;-56
2024/02/21 09:33:37;;;;;;;8.60;2.33;;;;;;;;;;5056731;28;20502;-57
2024/02/21 09:36:05;;;;;;;4.65;1.70;;;;;;;;;;5055710;28;20462;-57
2024/02/21 09:38:31;;;;;;;3.13;1.35;;;;;;;;;;5056376;28;20029;-58
2024/02/21 09:41:02;;;;;;;5.32;1.48;;;;;;;;;;5056172;28;20371;-57
2024/02/21 09:43:28;;;;;;;;;;;;;;;;;;5056624;28;20029;-55
2024/02/21 09:45:56;;;;;;;8.30;1.80;;;;;;;;;;5056379;28;19912;-54
2024/02/21 09:48:30;;;;;;;2.70;1.30;;;;;;;;;;5055863;28;20104;-54
2024/02/21 09:50:56;;;;;;;6.13;1.48;;;;;;;;;;5055695;28;20467;-54
2024/02/21 09:53:24;;;;;;;3.47;1.50;;;;;;;;;;5056090;28;20032;-54
2024/02/21 09:55:50;;;;;;;3.67;1.77;;;;;;;;;;5055590;28;20466;-56
2024/02/21 09:58:17;;;;;;;2.92;1.38;;;;;;;;;;5056020;28;20025;-54
2024/02/21 10:00:43;;;;;;;3.70;1.42;;;;;;;;;;5056027;28;20082;-56
2024/02/21 10:03:09;;;;;;;5.30;2.10;;;;;;;;;;5055423;28;20036;-56
2024/02/21 10:05:39;;;;;;;4.22;1.52;;;;;;;;;;5055814;28;20029;-54
2024/02/21 10:08:05;;;;;;;5.13;1.77;;;;;;;;;;5055686;28;20035;-54
2024/02/21 10:10:41;;;;;;;3.35;1.67;;;;;;;;;;5054998;28;20100;-53
2024/02/21 10:13:07;;;;;;;4.38;1.17;;;;;;;;;;5055901;28;20418;-56
2024/02/21 10:15:33;;;;;;;5.40;1.67;;;;;;;;;;5054956;28;20017;-56
2024/02/21 10:18:00;;;;;;;5.60;1.80;;;;;;;;;;5055902;28;20036;-57
2024/02/21 10:20:27;;;;;;;3.15;1.55;;;;;;;;;;5055183;28;20116;-54
2024/02/21 10:23:03;;;;;;;6.40;1.73;;;;;;;;;;5055254;28;20467;-56
2024/02/21 10:25:30;;;;;;;4.80;1.38;;;;;;;;;;5055645;28;20078;-56
2024/02/21 10:27:56;;;;;;;2.83;1.45;;;;;;;;;;5055373;28;20025;-55
2024/02/21 10:30:22;;;;;;;4.43;1.38;;;;;;;;;;5054734;28;20390;-57
2024/02/21 10:32:54;;;;;;;7.00;1.58;;;;;;;;;;5054143;28;20048;-56
2024/02/21 10:35:27;;;;;;;2.60;1.50;;;;;;;;;;5055141;28;20036;-55
2024/02/21 10:37:55;;;;;;;4.00;1.88;;;;;;;;;;5055179;28;20025;-56
2024/02/21 10:40:22;;;;;;;2.15;0.98;;;;;;;;;;5055265;28;20029;-54
2024/02/21 10:42:48;;;;;;;2.42;1.13;;;;;;;;;;5054725;28;20036;-56
2024/02/21 10:45:14;;;;;;;1.85;0.90;;;;;;;;;;5054341;28;20021;-56
2024/02/21 10:47:42;;;;;;;1.92;1.23;;;;;;;;;;5054527;28;20032;-56
2024/02/21 10:50:10;;;;;;;3.67;1.15;;;;;;;;;;5054548;28;20033;-56
2024/02/21 10:52:43;;;;;;;2.67;1.02;;;;;;;;;;5054577;28;20029;-57
2024/02/21 10:55:32;;;;;;;4.20;1.02;;;;;;;;;;5055046;28;20375;-57
2024/02/21 10:57:58;;;;;;;3.13;1.10;;;;;;;;;;5054409;28;20053;-57
2024/02/21 11:00:29;;;;;;;2.10;0.90;;;;;;;;;;5054272;28;20071;-57
2024/02/21 11:02:55;;;;;;;4.03;0.93;;;;;;;;;;5054879;28;20040;-56
2024/02/21 11:05:21;;;;;;;3.58;1.13;;;;;;;;;;5054338;28;20032;-55
2024/02/21 11:07:47;;;;;;;1.85;0.70;;;;;;;;;;5054348;28;20032;-57
2024/02/21 11:10:34;;;;;;;5.65;1.50;;;;;;;;;;5054015;28;20128;-57
2024/02/21 11:13:09;;;;;;;3.95;1.95;;;;;;;;;;5054987;28;20063;-57
2024/02/21 11:15:35;;;;;;;4.53;1.50;;;;;;;;;;5054700;28;20036;-57
2024/02/21 11:18:01;;;;;;;2.30;1.13;;;;;;;;;;5054429;28;20021;-55
2024/02/21 11:20:34;;;;;;;1.42;0.70;;;;;;;;;;5054002;28;20060;-57
2024/02/21 11:23:03;;;;;;;3.10;1.33;;;;;;;;;;5054391;28;20407;-57
2024/02/21 11:25:32;;;;;;;2.58;1.10;;;;;;;;;;5054055;28;20028;-55
2024/02/21 11:28:05;;;;;;;2.20;1.13;;;;;;;;;;5054485;28;20025;-56
2024/02/21 11:30:32;;;;;;;2.28;0.93;;;;;;;;;;5053947;28;20040;-56
2024/02/21 11:33:06;;;;;;;5.13;1.20;;;;;;;;;;5053897;28;20043;-57
2024/02/21 11:35:36;;;;;;;2.05;0.90;;;;;;;;;;5053865;28;20102;-57
2024/02/21 11:38:10;;;;;;;1.63;0.50;;;;;;;;;;5054442;28;20087;-57
2024/02/21 11:40:36;;;;;;;4.53;1.05;;;;;;;;;;5053816;28;20134;-57
2024/02/21 11:43:02;;;;;;;3.08;1.05;;;;;;;;;;5054641;28;20060;-57
2024/02/21 11:45:27;;;;;;;0.77;0.47;;;;;;;;;;5053271;28;20387;-57
2024/02/21 11:47:53;;;;;;;1.65;0.75;;;;;;;;;;5053829;28;20017;-56
2024/02/21 11:50:20;;;;;;;4.32;1.40;;;;;;;;;;5053774;28;20025;-57
2024/02/21 11:52:46;;;;;;;8.30;1.45;;;;;;;;;;5053707;28;20115;-57
2024/02/21 11:55:12;;;;;;;2.45;1.08;;;;;;;;;;5053566;28;20374;-57
2024/02/21 11:57:43;;;;;;;4.25;1.00;;;;;;;;;;5054001;28;20092;-57
2024/02/21 12:00:21;;;;;;;1.83;0.80;;;;;;;;;;5054044;28;20065;-56
2024/02/21 12:02:48;;;;;;;2.10;0.65;;;;;;;;;;5053543;28;20061;-57
2024/02/21 12:05:14;;;;;;;1.63;0.80;;;;;;;;;;5054141;28;20029;-57
2024/02/21 12:07:41;;;;;;;1.30;0.70;;;;;;;;;;5053728;28;20024;-57
2024/02/21 12:10:13;;;;;;;1.58;1.02;;;;;;;;;;5053279;28;20390;-57
2024/02/21 12:12:39;;;;;;;1.30;0.68;;;;;;;;;;5053481;28;20033;-56
2024/02/21 12:15:06;;;;;;;1.63;0.47;;;;;;;;;;5053416;28;20053;-56
2024/02/21 12:17:35;;;;;;;1.80;0.63;;;;;;;;;;5053145;28;20110;-57
2024/02/21 12:20:05;;;;;;;1.52;0.80;;;;;;;;;;5053999;28;20055;-57
2024/02/21 12:22:32;;;;;;;1.55;0.73;;;;;;;;;;5053383;28;20029;-57
2024/02/21 12:24:58;;;;;;;2.35;1.13;;;;;;;;;;5053784;28;20036;-57
2024/02/21 12:27:25;;;;;;;1.63;0.60;;;;;;;;;;5053414;28;20021;-57
2024/02/21 12:29:51;;;;;;;1.55;0.85;;;;;;;;;;5053861;28;20135;-57
2024/02/21 12:32:17;;;;;;;3.60;0.70;;;;;;;;;;5053232;28;20074;-57
2024/02/21 12:34:43;;;;;;;1.10;0.45;;;;;;;;;;5053384;28;20029;-56
2024/02/21 12:37:09;;;;;;;2.38;1.02;;;;;;;;;;5053447;28;20452;-56
2024/02/21 12:39:35;;;;;;;0.82;0.35;;;;;;;;;;5053785;28;20029;-55
2024/02/21 12:42:00;;;;;;;3.83;0.80;;;;;;;;;;5053352;28;20040;-57
2024/02/21 12:44:26;;;;;;;1.58;0.70;;;;;;;;;;5053416;28;20021;-57
2024/02/21 12:46:54;;;;;;;1.77;0.60;;;;;;;;;;5052832;28;20494;-57
2024/02/21 12:49:20;;;;;;;2.00;0.65;;;;;;;;;;5053933;28;20345;-57
2024/02/21 12:51:48;;;;;;;2.38;0.70;;;;;;;;;;5053134;28;20079;-58
2024/02/21 12:54:14;;;;;;;1.08;0.35;;;;;;;;;;5053145;28;20029;-58
2024/02/21 12:56:41;;;;;;;2.20;0.85;;;;;;;;;;5054619;28;20447;-57
2024/02/21 12:59:10;;;;;;;2.25;0.98;;;;;;;;;;5056766;28;20098;-58
2024/02/21 13:01:37;;;;;;;1.00;0.50;;;;;;;;;;5056600;28;20117;-57
2024/02/21 13:04:03;;;;;;;1.50;0.75;;;;;;;;;;5056855;28;20040;-56
2024/02/21 13:06:29;;;;;;;1.70;0.88;;;;;;;;;;5056787;28;20033;-57
2024/02/21 13:08:55;;;;;;;1.42;0.50;;;;;;;;;;5057431;28;20094;-57
2024/02/21 13:11:21;;;;;;;1.23;0.50;;;;;;;;;;5056808;28;20029;-57
2024/02/21 13:13:47;;;;;;;0.93;0.47;;;;;;;;;;5056648;28;20112;-59
2024/02/21 13:16:13;;;;;;;1.48;0.52;;;;;;;;;;5056481;28;20375;-58
2024/02/21 13:18:39;;;;;;;1.25;0.63;;;;;;;;;;5056191;28;20096;-58
2024/02/21 13:21:06;;;;;;;1.80;0.60;;;;;;;;;;5056337;28;20033;-58
2024/02/21 13:23:32;;;;;;;1.00;0.40;;;;;;;;;;5056153;28;20386;-59
2024/02/21 13:25:57;;;;;;;1.63;0.50;;;;;;;;;;5056192;28;20112;-58
2024/02/21 13:28:23;;;;;;;2.38;1.02;;;;;;;;;;5056243;28;20052;-58
2024/02/21 13:30:49;;;;;;;1.42;0.73;;;;;;;;;;5056147;28;20036;-58
2024/02/21 13:33:15;;;;;;;1.13;0.57;;;;;;;;;;5056403;28;20447;-59
2024/02/21 13:35:41;;;;;;;1.73;0.70;;;;;;;;;;5054610;28;20032;-58
2024/02/21 13:38:07;;;;;;;1.70;0.52;;;;;;;;;;5056417;28;20036;-59
2024/02/21 13:40:34;;;;;;;1.98;0.63;;;;;;;;;;5056436;28;20436;-58
2024/02/21 13:43:00;;;;;;;1.67;0.68;;;;;;;;;;5055790;28;20033;-59
2024/02/21 13:45:27;;;;;;;1.27;0.52;;;;;;;;;;5055524;28;20036;-58
2024/02/21 13:47:53;;;;;;;1.63;0.68;;;;;;;;;;5056232;28;20021;-58
2024/02/21 13:50:19;;;;;;;1.15;0.60;;;;;;;;;;5055930;28;20032;-58
2024/02/21 13:52:46;;;;;;;1.52;0.70;;;;;;;;;;5055514;28;20031;-58
2024/02/21 13:55:12;;;;;;;1.58;0.70;;;;;;;;;;5055197;28;20435;-58
2024/02/21 13:57:38;;;;;;;1.83;0.57;;;;;;;;;;5055768;28;20106;-57
2024/02/21 14:00:05;;;;;;;0.93;0.28;;;;;;;;;;5056333;28;20064;-58
2024/02/21 14:02:31;;;;;;;2.30;0.50;;;;;;;;;;5055355;28;20123;-57
2024/02/21 14:04:56;;;;;;;3.38;0.68;;;;;;;;;;5055511;28;20159;-58
2024/02/21 14:07:22;;;;;;;1.58;0.82;;;;;;;;;;5053729;28;20068;-57
2024/02/21 14:09:48;;;;;;;2.65;0.68;;;;;;;;;;5056022;28;20033;-58
2024/02/21 14:12:16;;;;;;;1.33;0.55;;;;;;;;;;5055695;28;20025;-58
2024/02/21 14:14:44;;;;;;;2.63;0.88;;;;;;;;;;5055808;28;20075;-57
2024/02/21 14:17:10;;;;;;;3.72;0.85;;;;;;;;;;5055250;28;20040;-57
2024/02/21 14:19:36;;;;;;;1.80;0.50;;;;;;;;;;5055580;28;20040;-57
2024/02/21 14:22:02;;;;;;;2.38;0.60;;;;;;;;;;5056013;28;20390;-57
2024/02/21 14:24:28;;;;;;;2.47;1.10;;;;;;;;;;5055053;28;20037;-58
2024/02/21 14:26:54;;;;;;;5.90;0.85;;;;;;;;;;5055074;28;20044;-57
2024/02/21 14:29:21;;;;;;;4.10;0.77;;;;;;;;;;5055323;28;20371;-57
2024/02/21 14:31:47;;;;;;;3.45;0.80;;;;;;;;;;5054941;28;20544;-57
2024/02/21 14:34:13;;;;;;;1.52;0.65;;;;;;;;;;5055488;28;20024;-58
2024/02/21 14:36:40;;;;;;;3.10;0.75;;;;;;;;;;5055693;28;20021;-57
2024/02/21 14:39:06;;;;;;;1.90;0.80;;;;;;;;;;5055401;28;20029;-58
2024/02/21 14:41:32;;;;;;;1.70;0.70;;;;;;;;;;5054508;28;20490;-57